Terminal Aerodrome Forecast
Issued by NWS

Home | Current Version | Previous Version | Text Only | Print | Product List | Glossary On
Versions: 1 2 3 4 5 6 7 8 9 10 11 12 13 14 15 16 17 18 19 20 21
000
FTUS42 KMHX 301100
TAFPGV
TAF
KPGV 301120Z 3012/0112 35003KT 1SM BR BKN003
      TEMPO 3012/3013 1/4SM FG BKN002
     FM301330 02005KT P6SM SCT050 SCT100
     FM301800 04005KT P6SM SCT050
     FM010800 01002KT 3SM BR SCT008
      AMD LTD TO CLD VIS AND WIND=

USA.gov is the U.S. government's official web portal to all federal, state and local government web resources and services.